sensor_id;sensor_type;location;lat;lon;timestamp;temperature;humidity
20803;DHT22;10562;-33.856;151.182;2023-06-24T00:00:51;14.90;99.90
20803;DHT22;10562;-33.856;151.182;2023-06-24T00:03:22;14.90;99.90
20803;DHT22;10562;-33.856;151.182;2023-06-24T00:05:54;14.90;99.90
20803;DHT22;10562;-33.856;151.182;2023-06-24T00:08:25;15.10;99.90
20803;DHT22;10562;-33.856;151.182;2023-06-24T00:11:02;15.20;99.90
20803;DHT22;10562;-33.856;151.182;2023-06-24T00:13:33;15.40;99.90
20803;DHT22;10562;-33.856;151.182;2023-06-24T00:16:04;15.30;99.90
20803;DHT22;10562;-33.856;151.182;2023-06-24T00:18:35;15.20;99.90
20803;DHT22;10562;-33.856;151.182;2023-06-24T00:21:11;15.20;99.90
20803;DHT22;10562;-33.856;151.182;2023-06-24T00:23:44;15.30;99.90
20803;DHT22;10562;-33.856;151.182;2023-06-24T00:26:16;15.30;99.90
20803;DHT22;10562;-33.856;151.182;2023-06-24T00:28:47;15.30;99.90
20803;DHT22;10562;-33.856;151.182;2023-06-24T00:31:17;15.40;99.90
20803;DHT22;10562;-33.856;151.182;2023-06-24T00:33:50;15.40;99.90
20803;DHT22;10562;-33.856;151.182;2023-06-24T00:36:23;15.30;99.90
20803;DHT22;10562;-33.856;151.182;2023-06-24T00:38:55;15.40;99.90
20803;DHT22;10562;-33.856;151.182;2023-06-24T00:41:28;15.40;99.90
20803;DHT22;10562;-33.856;151.182;2023-06-24T00:44:00;15.50;99.90
20803;DHT22;10562;-33.856;151.182;2023-06-24T00:46:31;15.60;99.90
20803;DHT22;10562;-33.856;151.182;2023-06-24T00:49:02;15.70;99.90
20803;DHT22;10562;-33.856;151.182;2023-06-24T00:51:35;15.70;99.90
20803;DHT22;10562;-33.856;151.182;2023-06-24T00:54:08;15.90;99.90
20803;DHT22;10562;-33.856;151.182;2023-06-24T00:56:39;15.80;99.90
20803;DHT22;10562;-33.856;151.182;2023-06-24T00:59:15;15.90;99.90
20803;DHT22;10562;-33.856;151.182;2023-06-24T01:01:46;16.00;99.90
20803;DHT22;10562;-33.856;151.182;2023-06-24T01:04:17;16.10;99.90
20803;DHT22;10562;-33.856;151.182;2023-06-24T01:06:50;16.10;99.90
20803;DHT22;10562;-33.856;151.182;2023-06-24T01:09:21;16.00;99.90
20803;DHT22;10562;-33.856;151.182;2023-06-24T01:11:52;16.20;99.90
20803;DHT22;10562;-33.856;151.182;2023-06-24T01:14:23;16.10;99.90
20803;DHT22;10562;-33.856;151.182;2023-06-24T01:16:59;16.00;99.90
20803;DHT22;10562;-33.856;151.182;2023-06-24T01:19:56;16.20;99.90
20803;DHT22;10562;-33.856;151.182;2023-06-24T01:25:46;16.40;99.90
20803;DHT22;10562;-33.856;151.182;2023-06-24T01:28:45;16.50;99.90
20803;DHT22;10562;-33.856;151.182;2023-06-24T01:31:34;16.60;99.90
20803;DHT22;10562;-33.856;151.182;2023-06-24T01:34:15;16.60;99.90
20803;DHT22;10562;-33.856;151.182;2023-06-24T01:36:54;16.70;99.90
20803;DHT22;10562;-33.856;151.182;2023-06-24T01:39:28;16.70;99.90
20803;DHT22;10562;-33.856;151.182;2023-06-24T01:42:06;16.80;99.90
20803;DHT22;10562;-33.856;151.182;2023-06-24T01:44:40;16.80;99.90
20803;DHT22;10562;-33.856;151.182;2023-06-24T01:47:16;16.80;99.90
20803;DHT22;10562;-33.856;151.182;2023-06-24T01:49:51;16.90;99.90
20803;DHT22;10562;-33.856;151.182;2023-06-24T01:52:23;17.00;99.90
20803;DHT22;10562;-33.856;151.182;2023-06-24T01:54:55;17.00;99.90
20803;DHT22;10562;-33.856;151.182;2023-06-24T01:57:27;16.90;99.90
20803;DHT22;10562;-33.856;151.182;2023-06-24T01:59:58;16.80;99.90
20803;DHT22;10562;-33.856;151.182;2023-06-24T02:02:32;17.00;99.90
20803;DHT22;10562;-33.856;151.182;2023-06-24T02:05:04;17.30;99.90
20803;DHT22;10562;-33.856;151.182;2023-06-24T02:07:37;17.30;99.90
20803;DHT22;10562;-33.856;151.182;2023-06-24T02:10:09;17.30;99.90
20803;DHT22;10562;-33.856;151.182;2023-06-24T02:12:42;17.40;99.90
20803;DHT22;10562;-33.856;151.182;2023-06-24T02:15:14;17.60;99.90
20803;DHT22;10562;-33.856;151.182;2023-06-24T02:17:50;17.70;99.90
20803;DHT22;10562;-33.856;151.182;2023-06-24T02:20:24;17.80;99.90
20803;DHT22;10562;-33.856;151.182;2023-06-24T02:22:57;17.70;99.90
20803;DHT22;10562;-33.856;151.182;2023-06-24T02:25:29;17.60;99.90
20803;DHT22;10562;-33.856;151.182;2023-06-24T02:28:00;17.60;99.90
20803;DHT22;10562;-33.856;151.182;2023-06-24T02:30:31;17.80;99.90
20803;DHT22;10562;-33.856;151.182;2023-06-24T02:33:05;17.80;99.90
20803;DHT22;10562;-33.856;151.182;2023-06-24T02:35:37;17.70;99.90
20803;DHT22;10562;-33.856;151.182;2023-06-24T02:38:09;17.80;99.90
20803;DHT22;10562;-33.856;151.182;2023-06-24T02:40:40;17.80;99.90
20803;DHT22;10562;-33.856;151.182;2023-06-24T02:43:13;17.80;99.90
20803;DHT22;10562;-33.856;151.182;2023-06-24T02:45:45;18.00;99.90
20803;DHT22;10562;-33.856;151.182;2023-06-24T02:48:19;18.00;99.90
20803;DHT22;10562;-33.856;151.182;2023-06-24T02:50:51;18.00;99.90
20803;DHT22;10562;-33.856;151.182;2023-06-24T02:53:22;18.20;99.90
20803;DHT22;10562;-33.856;151.182;2023-06-24T02:55:54;18.30;99.90
20803;DHT22;10562;-33.856;151.182;2023-06-24T02:58:25;18.30;99.90
20803;DHT22;10562;-33.856;151.182;2023-06-24T03:01:00;18.40;99.90
20803;DHT22;10562;-33.856;151.182;2023-06-24T03:03:36;18.40;99.90
20803;DHT22;10562;-33.856;151.182;2023-06-24T03:06:07;18.40;99.90
20803;DHT22;10562;-33.856;151.182;2023-06-24T03:08:40;18.50;99.90
20803;DHT22;10562;-33.856;151.182;2023-06-24T03:11:13;18.30;99.90
20803;DHT22;10562;-33.856;151.182;2023-06-24T03:13:44;18.30;99.90
20803;DHT22;10562;-33.856;151.182;2023-06-24T03:16:15;18.40;99.90
20803;DHT22;10562;-33.856;151.182;2023-06-24T03:18:48;18.40;99.90
20803;DHT22;10562;-33.856;151.182;2023-06-24T03:21:19;18.30;99.90
20803;DHT22;10562;-33.856;151.182;2023-06-24T03:23:56;18.40;99.90
20803;DHT22;10562;-33.856;151.182;2023-06-24T03:26:32;18.30;99.90
20803;DHT22;10562;-33.856;151.182;2023-06-24T03:29:03;18.30;99.90
20803;DHT22;10562;-33.856;151.182;2023-06-24T03:31:34;18.50;99.90
20803;DHT22;10562;-33.856;151.182;2023-06-24T03:34:07;18.70;99.90
20803;DHT22;10562;-33.856;151.182;2023-06-24T03:36:38;18.60;99.90
20803;DHT22;10562;-33.856;151.182;2023-06-24T03:39:08;18.70;99.90
20803;DHT22;10562;-33.856;151.182;2023-06-24T03:41:39;18.80;99.90
20803;DHT22;10562;-33.856;151.182;2023-06-24T03:44:10;18.80;99.90
20803;DHT22;10562;-33.856;151.182;2023-06-24T03:46:41;18.90;99.90
20803;DHT22;10562;-33.856;151.182;2023-06-24T03:49:14;19.00;99.90
20803;DHT22;10562;-33.856;151.182;2023-06-24T03:51:44;19.20;99.90
20803;DHT22;10562;-33.856;151.182;2023-06-24T03:54:15;19.00;99.90
20803;DHT22;10562;-33.856;151.182;2023-06-24T03:56:46;19.10;99.90
20803;DHT22;10562;-33.856;151.182;2023-06-24T03:59:17;19.30;99.90
20803;DHT22;10562;-33.856;151.182;2023-06-24T04:01:48;19.30;99.90
20803;DHT22;10562;-33.856;151.182;2023-06-24T04:04:21;19.30;99.90
20803;DHT22;10562;-33.856;151.182;2023-06-24T04:06:52;19.20;99.90
20803;DHT22;10562;-33.856;151.182;2023-06-24T04:09:23;19.30;99.90
20803;DHT22;10562;-33.856;151.182;2023-06-24T04:11:53;19.20;99.90
20803;DHT22;10562;-33.856;151.182;2023-06-24T04:14:24;19.30;99.90
20803;DHT22;10562;-33.856;151.182;2023-06-24T04:16:55;19.30;99.90
20803;DHT22;10562;-33.856;151.182;2023-06-24T04:19:28;19.40;99.90
20803;DHT22;10562;-33.856;151.182;2023-06-24T04:21:58;19.50;99.90
20803;DHT22;10562;-33.856;151.182;2023-06-24T04:24:29;19.60;99.90
20803;DHT22;10562;-33.856;151.182;2023-06-24T04:27:00;19.50;99.90
20803;DHT22;10562;-33.856;151.182;2023-06-24T04:29:30;19.50;99.90
20803;DHT22;10562;-33.856;151.182;2023-06-24T04:32:02;19.70;99.90
20803;DHT22;10562;-33.856;151.182;2023-06-24T04:34:35;19.70;99.90
20803;DHT22;10562;-33.856;151.182;2023-06-24T04:37:05;19.70;99.90
20803;DHT22;10562;-33.856;151.182;2023-06-24T04:39:36;19.70;99.90
20803;DHT22;10562;-33.856;151.182;2023-06-24T04:42:07;19.80;99.90
20803;DHT22;10562;-33.856;151.182;2023-06-24T04:44:38;19.80;99.90
20803;DHT22;10562;-33.856;151.182;2023-06-24T04:47:09;19.70;99.90
20803;DHT22;10562;-33.856;151.182;2023-06-24T04:49:43;19.50;99.90
20803;DHT22;10562;-33.856;151.182;2023-06-24T04:52:14;19.50;99.90
20803;DHT22;10562;-33.856;151.182;2023-06-24T04:54:45;19.50;99.90
20803;DHT22;10562;-33.856;151.182;2023-06-24T04:57:26;19.50;99.90
20803;DHT22;10562;-33.856;151.182;2023-06-24T04:59:57;19.50;99.90
20803;DHT22;10562;-33.856;151.182;2023-06-24T05:02:28;19.50;99.90
20803;DHT22;10562;-33.856;151.182;2023-06-24T05:05:01;19.50;99.90
20803;DHT22;10562;-33.856;151.182;2023-06-24T05:07:31;19.40;99.90
20803;DHT22;10562;-33.856;151.182;2023-06-24T05:10:02;19.40;99.90
20803;DHT22;10562;-33.856;151.182;2023-06-24T05:12:33;19.30;99.90
20803;DHT22;10562;-33.856;151.182;2023-06-24T05:15:04;19.20;99.90
20803;DHT22;10562;-33.856;151.182;2023-06-24T05:17:35;19.20;99.90
20803;DHT22;10562;-33.856;151.182;2023-06-24T05:20:09;19.20;99.90
20803;DHT22;10562;-33.856;151.182;2023-06-24T05:22:40;19.20;99.90
20803;DHT22;10562;-33.856;151.182;2023-06-24T05:25:11;19.10;99.90
20803;DHT22;10562;-33.856;151.182;2023-06-24T05:27:42;19.10;99.90
20803;DHT22;10562;-33.856;151.182;2023-06-24T05:30:13;19.10;99.90
20803;DHT22;10562;-33.856;151.182;2023-06-24T05:32:44;19.10;99.90
20803;DHT22;10562;-33.856;151.182;2023-06-24T05:35:17;19.00;99.90
20803;DHT22;10562;-33.856;151.182;2023-06-24T05:37:48;18.80;99.90
20803;DHT22;10562;-33.856;151.182;2023-06-24T05:40:19;18.80;99.90
20803;DHT22;10562;-33.856;151.182;2023-06-24T05:42:50;18.70;99.90
20803;DHT22;10562;-33.856;151.182;2023-06-24T05:45:21;18.60;99.90
20803;DHT22;10562;-33.856;151.182;2023-06-24T05:47:52;18.50;99.90
20803;DHT22;10562;-33.856;151.182;2023-06-24T05:50:24;18.40;99.90
20803;DHT22;10562;-33.856;151.182;2023-06-24T05:52:55;18.20;99.90
20803;DHT22;10562;-33.856;151.182;2023-06-24T05:55:26;18.20;99.90
20803;DHT22;10562;-33.856;151.182;2023-06-24T05:57:57;18.10;99.90
20803;DHT22;10562;-33.856;151.182;2023-06-24T06:00:37;18.10;99.90
20803;DHT22;10562;-33.856;151.182;2023-06-24T06:03:08;18.00;99.90
20803;DHT22;10562;-33.856;151.182;2023-06-24T06:05:41;17.90;99.90
20803;DHT22;10562;-33.856;151.182;2023-06-24T06:08:11;17.80;99.90
20803;DHT22;10562;-33.856;151.182;2023-06-24T06:10:42;17.70;99.90
20803;DHT22;10562;-33.856;151.182;2023-06-24T06:13:13;17.60;99.90
20803;DHT22;10562;-33.856;151.182;2023-06-24T06:15:44;17.40;99.90
20803;DHT22;10562;-33.856;151.182;2023-06-24T06:18:15;17.40;99.90
20803;DHT22;10562;-33.856;151.182;2023-06-24T06:20:48;17.20;99.90
20803;DHT22;10562;-33.856;151.182;2023-06-24T06:23:19;17.20;99.90
20803;DHT22;10562;-33.856;151.182;2023-06-24T06:25:50;17.10;99.90
20803;DHT22;10562;-33.856;151.182;2023-06-24T06:28:21;16.90;99.90
20803;DHT22;10562;-33.856;151.182;2023-06-24T06:30:52;16.80;99.90
20803;DHT22;10562;-33.856;151.182;2023-06-24T06:33:24;16.70;99.90
20803;DHT22;10562;-33.856;151.182;2023-06-24T06:35:57;16.60;99.90
20803;DHT22;10562;-33.856;151.182;2023-06-24T06:38:28;16.60;99.90
20803;DHT22;10562;-33.856;151.182;2023-06-24T06:40:59;16.40;99.90
20803;DHT22;10562;-33.856;151.182;2023-06-24T06:43:30;16.20;99.90
20803;DHT22;10562;-33.856;151.182;2023-06-24T06:46:01;16.00;99.90
20803;DHT22;10562;-33.856;151.182;2023-06-24T06:48:32;15.90;99.90
20803;DHT22;10562;-33.856;151.182;2023-06-24T06:51:05;15.70;99.90
20803;DHT22;10562;-33.856;151.182;2023-06-24T06:53:35;15.60;99.90
20803;DHT22;10562;-33.856;151.182;2023-06-24T06:56:07;15.40;99.90
20803;DHT22;10562;-33.856;151.182;2023-06-24T06:58:38;15.30;99.90
20803;DHT22;10562;-33.856;151.182;2023-06-24T07:01:09;15.20;99.90
20803;DHT22;10562;-33.856;151.182;2023-06-24T07:03:40;15.10;99.90
20803;DHT22;10562;-33.856;151.182;2023-06-24T07:06:13;15.20;99.90
20803;DHT22;10562;-33.856;151.182;2023-06-24T07:08:44;15.30;99.90
20803;DHT22;10562;-33.856;151.182;2023-06-24T07:11:15;15.10;99.90
20803;DHT22;10562;-33.856;151.182;2023-06-24T07:13:46;14.90;99.90
20803;DHT22;10562;-33.856;151.182;2023-06-24T07:16:19;14.70;99.90
20803;DHT22;10562;-33.856;151.182;2023-06-24T07:18:50;14.60;99.90
20803;DHT22;10562;-33.856;151.182;2023-06-24T07:21:26;14.40;99.90
20803;DHT22;10562;-33.856;151.182;2023-06-24T07:23:57;14.30;99.90
20803;DHT22;10562;-33.856;151.182;2023-06-24T07:26:29;14.20;99.90
20803;DHT22;10562;-33.856;151.182;2023-06-24T07:29:00;14.10;99.90
20803;DHT22;10562;-33.856;151.182;2023-06-24T07:31:31;14.10;99.90
20803;DHT22;10562;-33.856;151.182;2023-06-24T07:34:02;14.10;99.90
20803;DHT22;10562;-33.856;151.182;2023-06-24T07:36:35;14.00;99.90
20803;DHT22;10562;-33.856;151.182;2023-06-24T07:39:06;13.90;99.90
20803;DHT22;10562;-33.856;151.182;2023-06-24T07:41:37;13.80;99.90
20803;DHT22;10562;-33.856;151.182;2023-06-24T07:44:10;13.80;99.90
20803;DHT22;10562;-33.856;151.182;2023-06-24T07:46:41;13.80;99.90
20803;DHT22;10562;-33.856;151.182;2023-06-24T07:49:12;13.70;99.90
20803;DHT22;10562;-33.856;151.182;2023-06-24T07:51:49;13.90;99.90
20803;DHT22;10562;-33.856;151.182;2023-06-24T07:54:20;13.80;99.90
20803;DHT22;10562;-33.856;151.182;2023-06-24T07:56:51;14.00;99.90
20803;DHT22;10562;-33.856;151.182;2023-06-24T07:59:22;14.10;99.90
20803;DHT22;10562;-33.856;151.182;2023-06-24T08:01:53;14.20;99.90
20803;DHT22;10562;-33.856;151.182;2023-06-24T08:04:27;14.30;99.90
20803;DHT22;10562;-33.856;151.182;2023-06-24T08:07:04;14.30;99.90
20803;DHT22;10562;-33.856;151.182;2023-06-24T08:09:35;14.20;99.90
20803;DHT22;10562;-33.856;151.182;2023-06-24T08:12:07;14.30;99.90
20803;DHT22;10562;-33.856;151.182;2023-06-24T08:14:38;14.20;99.90
20803;DHT22;10562;-33.856;151.182;2023-06-24T08:17:09;14.40;99.90
20803;DHT22;10562;-33.856;151.182;2023-06-24T08:19:40;14.20;99.90
20803;DHT22;10562;-33.856;151.182;2023-06-24T08:22:13;14.10;99.90
20803;DHT22;10562;-33.856;151.182;2023-06-24T08:24:43;14.00;99.90
20803;DHT22;10562;-33.856;151.182;2023-06-24T08:27:15;13.90;99.90
20803;DHT22;10562;-33.856;151.182;2023-06-24T08:29:47;13.90;99.90
20803;DHT22;10562;-33.856;151.182;2023-06-24T08:32:18;13.80;99.90
20803;DHT22;10562;-33.856;151.182;2023-06-24T08:34:49;13.70;99.90
20803;DHT22;10562;-33.856;151.182;2023-06-24T08:37:22;13.60;99.90
20803;DHT22;10562;-33.856;151.182;2023-06-24T08:39:53;13.70;99.90
20803;DHT22;10562;-33.856;151.182;2023-06-24T08:42:25;13.60;99.90
20803;DHT22;10562;-33.856;151.182;2023-06-24T08:44:57;13.50;99.90
20803;DHT22;10562;-33.856;151.182;2023-06-24T08:47:29;13.60;99.90
20803;DHT22;10562;-33.856;151.182;2023-06-24T08:50:08;13.60;99.90
20803;DHT22;10562;-33.856;151.182;2023-06-24T08:52:44;13.50;99.90
20803;DHT22;10562;-33.856;151.182;2023-06-24T08:55:19;13.40;99.90
20803;DHT22;10562;-33.856;151.182;2023-06-24T08:57:52;13.30;99.90
20803;DHT22;10562;-33.856;151.182;2023-06-24T09:00:27;13.40;99.90
20803;DHT22;10562;-33.856;151.182;2023-06-24T09:02:59;13.40;99.90
20803;DHT22;10562;-33.856;151.182;2023-06-24T09:05:30;13.40;99.90
20803;DHT22;10562;-33.856;151.182;2023-06-24T09:08:06;13.50;99.90
20803;DHT22;10562;-33.856;151.182;2023-06-24T09:10:38;13.40;99.90
20803;DHT22;10562;-33.856;151.182;2023-06-24T09:13:09;13.40;99.90
20803;DHT22;10562;-33.856;151.182;2023-06-24T09:15:41;13.30;99.90
20803;DHT22;10562;-33.856;151.182;2023-06-24T09:18:13;13.20;99.90
20803;DHT22;10562;-33.856;151.182;2023-06-24T09:20:45;13.10;99.90
20803;DHT22;10562;-33.856;151.182;2023-06-24T09:23:26;13.00;99.90
20803;DHT22;10562;-33.856;151.182;2023-06-24T09:25:59;12.90;99.90
20803;DHT22;10562;-33.856;151.182;2023-06-24T09:28:30;13.10;99.90
20803;DHT22;10562;-33.856;151.182;2023-06-24T09:31:10;13.20;99.90
20803;DHT22;10562;-33.856;151.182;2023-06-24T09:33:41;13.10;99.90
20803;DHT22;10562;-33.856;151.182;2023-06-24T09:36:14;13.10;99.90
20803;DHT22;10562;-33.856;151.182;2023-06-24T09:38:47;13.30;99.90
20803;DHT22;10562;-33.856;151.182;2023-06-24T09:41:19;13.30;99.90
20803;DHT22;10562;-33.856;151.182;2023-06-24T09:43:50;13.30;99.90
20803;DHT22;10562;-33.856;151.182;2023-06-24T09:46:20;13.20;99.90
20803;DHT22;10562;-33.856;151.182;2023-06-24T09:48:51;13.20;99.90
20803;DHT22;10562;-33.856;151.182;2023-06-24T09:51:23;13.10;99.90
20803;DHT22;10562;-33.856;151.182;2023-06-24T09:53:56;13.20;99.90
20803;DHT22;10562;-33.856;151.182;2023-06-24T09:56:28;13.00;99.90
20803;DHT22;10562;-33.856;151.182;2023-06-24T09:58:59;13.10;99.90
20803;DHT22;10562;-33.856;151.182;2023-06-24T10:01:32;13.30;99.90
20803;DHT22;10562;-33.856;151.182;2023-06-24T10:04:06;13.10;99.90
20803;DHT22;10562;-33.856;151.182;2023-06-24T10:06:37;13.20;99.90
20803;DHT22;10562;-33.856;151.182;2023-06-24T10:09:09;13.10;99.90
20803;DHT22;10562;-33.856;151.182;2023-06-24T10:11:45;12.90;99.90
20803;DHT22;10562;-33.856;151.182;2023-06-24T10:14:16;12.80;99.90
20803;DHT22;10562;-33.856;151.182;2023-06-24T10:16:47;12.60;99.90
20803;DHT22;10562;-33.856;151.182;2023-06-24T10:19:20;12.50;99.90
20803;DHT22;10562;-33.856;151.182;2023-06-24T10:21:52;12.40;99.90
20803;DHT22;10562;-33.856;151.182;2023-06-24T10:24:32;12.30;99.90
20803;DHT22;10562;-33.856;151.182;2023-06-24T10:27:07;12.20;99.90
20803;DHT22;10562;-33.856;151.182;2023-06-24T10:29:39;12.10;99.90
20803;DHT22;10562;-33.856;151.182;2023-06-24T10:32:10;12.00;99.90
20803;DHT22;10562;-33.856;151.182;2023-06-24T10:34:42;11.90;99.90
20803;DHT22;10562;-33.856;151.182;2023-06-24T10:37:15;11.90;99.90
20803;DHT22;10562;-33.856;151.182;2023-06-24T10:39:53;11.80;99.90
20803;DHT22;10562;-33.856;151.182;2023-06-24T10:42:39;11.80;99.90
20803;DHT22;10562;-33.856;151.182;2023-06-24T10:45:20;11.70;99.90
20803;DHT22;10562;-33.856;151.182;2023-06-24T10:47:53;11.60;99.90
20803;DHT22;10562;-33.856;151.182;2023-06-24T10:50:24;11.60;99.90
20803;DHT22;10562;-33.856;151.182;2023-06-24T10:52:56;11.60;99.90
20803;DHT22;10562;-33.856;151.182;2023-06-24T10:55:31;11.60;99.90
20803;DHT22;10562;-33.856;151.182;2023-06-24T10:58:09;11.50;99.90
20803;DHT22;10562;-33.856;151.182;2023-06-24T11:00:40;11.40;99.90
20803;DHT22;10562;-33.856;151.182;2023-06-24T11:03:14;11.40;99.90
20803;DHT22;10562;-33.856;151.182;2023-06-24T11:05:46;11.30;99.90
20803;DHT22;10562;-33.856;151.182;2023-06-24T11:08:16;11.40;99.90
20803;DHT22;10562;-33.856;151.182;2023-06-24T11:10:50;11.60;99.90
20803;DHT22;10562;-33.856;151.182;2023-06-24T11:13:22;11.60;99.90
20803;DHT22;10562;-33.856;151.182;2023-06-24T11:15:52;11.50;99.90
20803;DHT22;10562;-33.856;151.182;2023-06-24T11:18:38;11.40;99.90
20803;DHT22;10562;-33.856;151.182;2023-06-24T11:21:10;11.40;99.90
20803;DHT22;10562;-33.856;151.182;2023-06-24T11:23:41;11.50;99.90
20803;DHT22;10562;-33.856;151.182;2023-06-24T11:26:16;11.50;99.90
20803;DHT22;10562;-33.856;151.182;2023-06-24T11:28:48;11.40;99.90
20803;DHT22;10562;-33.856;151.182;2023-06-24T11:31:19;11.40;99.90
20803;DHT22;10562;-33.856;151.182;2023-06-24T11:33:54;11.60;99.90
20803;DHT22;10562;-33.856;151.182;2023-06-24T11:36:25;11.90;99.90
20803;DHT22;10562;-33.856;151.182;2023-06-24T11:38:56;11.80;99.90
20803;DHT22;10562;-33.856;151.182;2023-06-24T11:41:29;11.70;99.90
20803;DHT22;10562;-33.856;151.182;2023-06-24T11:44:00;11.50;99.90
20803;DHT22;10562;-33.856;151.182;2023-06-24T11:46:32;11.40;99.90
20803;DHT22;10562;-33.856;151.182;2023-06-24T11:49:06;11.50;99.90
20803;DHT22;10562;-33.856;151.182;2023-06-24T11:51:37;11.70;99.90
20803;DHT22;10562;-33.856;151.182;2023-06-24T11:54:16;11.60;99.90
20803;DHT22;10562;-33.856;151.182;2023-06-24T11:56:51;11.40;99.90
20803;DHT22;10562;-33.856;151.182;2023-06-24T11:59:23;11.30;99.90
20803;DHT22;10562;-33.856;151.182;2023-06-24T12:01:55;11.30;99.90
20803;DHT22;10562;-33.856;151.182;2023-06-24T12:04:31;11.20;99.90
20803;DHT22;10562;-33.856;151.182;2023-06-24T12:07:02;11.10;99.90
20803;DHT22;10562;-33.856;151.182;2023-06-24T12:09:34;11.00;99.90
20803;DHT22;10562;-33.856;151.182;2023-06-24T12:12:11;11.00;99.90
20803;DHT22;10562;-33.856;151.182;2023-06-24T12:14:41;11.00;99.90
20803;DHT22;10562;-33.856;151.182;2023-06-24T12:17:13;11.30;99.90
20803;DHT22;10562;-33.856;151.182;2023-06-24T12:19:44;11.40;99.90
20803;DHT22;10562;-33.856;151.182;2023-06-24T12:22:16;11.40;99.90
20803;DHT22;10562;-33.856;151.182;2023-06-24T12:24:48;11.20;99.90
20803;DHT22;10562;-33.856;151.182;2023-06-24T12:27:20;11.20;99.90
20803;DHT22;10562;-33.856;151.182;2023-06-24T12:29:51;11.40;99.90
20803;DHT22;10562;-33.856;151.182;2023-06-24T12:32:22;11.40;99.90
20803;DHT22;10562;-33.856;151.182;2023-06-24T12:34:53;11.50;99.90
20803;DHT22;10562;-33.856;151.182;2023-06-24T12:37:24;11.50;99.90
20803;DHT22;10562;-33.856;151.182;2023-06-24T12:39:54;11.40;99.90
20803;DHT22;10562;-33.856;151.182;2023-06-24T12:42:28;11.30;99.90
20803;DHT22;10562;-33.856;151.182;2023-06-24T12:44:59;11.10;99.90
20803;DHT22;10562;-33.856;151.182;2023-06-24T12:47:30;11.10;99.90
20803;DHT22;10562;-33.856;151.182;2023-06-24T12:50:01;11.10;99.90
20803;DHT22;10562;-33.856;151.182;2023-06-24T12:52:34;11.00;99.90
20803;DHT22;10562;-33.856;151.182;2023-06-24T12:55:05;11.00;99.90
20803;DHT22;10562;-33.856;151.182;2023-06-24T12:57:38;10.90;99.90
20803;DHT22;10562;-33.856;151.182;2023-06-24T13:00:10;10.90;99.90
20803;DHT22;10562;-33.856;151.182;2023-06-24T13:02:41;10.80;99.90
20803;DHT22;10562;-33.856;151.182;2023-06-24T13:05:12;10.80;99.90
20803;DHT22;10562;-33.856;151.182;2023-06-24T13:07:42;10.80;99.90
20803;DHT22;10562;-33.856;151.182;2023-06-24T13:10:13;10.70;99.90
20803;DHT22;10562;-33.856;151.182;2023-06-24T13:12:46;10.70;99.90
20803;DHT22;10562;-33.856;151.182;2023-06-24T13:15:17;10.60;99.90
20803;DHT22;10562;-33.856;151.182;2023-06-24T13:17:49;10.60;99.90
20803;DHT22;10562;-33.856;151.182;2023-06-24T13:20:19;10.60;99.90
20803;DHT22;10562;-33.856;151.182;2023-06-24T13:23:02;10.70;99.90
20803;DHT22;10562;-33.856;151.182;2023-06-24T13:25:33;10.60;99.90
20803;DHT22;10562;-33.856;151.182;2023-06-24T13:28:07;10.60;99.90
20803;DHT22;10562;-33.856;151.182;2023-06-24T13:30:37;10.50;99.90
20803;DHT22;10562;-33.856;151.182;2023-06-24T13:33:08;10.50;99.90
20803;DHT22;10562;-33.856;151.182;2023-06-24T13:35:39;10.50;99.90
20803;DHT22;10562;-33.856;151.182;2023-06-24T13:38:12;10.40;99.90
20803;DHT22;10562;-33.856;151.182;2023-06-24T13:40:44;10.40;99.90
20803;DHT22;10562;-33.856;151.182;2023-06-24T13:43:18;10.30;99.90
20803;DHT22;10562;-33.856;151.182;2023-06-24T13:45:48;10.20;99.90
20803;DHT22;10562;-33.856;151.182;2023-06-24T13:48:20;10.20;99.90
20803;DHT22;10562;-33.856;151.182;2023-06-24T13:50:54;10.20;99.90
20803;DHT22;10562;-33.856;151.182;2023-06-24T13:53:24;10.10;99.90
20803;DHT22;10562;-33.856;151.182;2023-06-24T13:55:55;10.10;99.90
20803;DHT22;10562;-33.856;151.182;2023-06-24T13:58:28;10.10;99.90
20803;DHT22;10562;-33.856;151.182;2023-06-24T14:01:00;10.10;99.90
20803;DHT22;10562;-33.856;151.182;2023-06-24T14:03:31;10.10;99.90
20803;DHT22;10562;-33.856;151.182;2023-06-24T14:06:02;10.00;99.90
20803;DHT22;10562;-33.856;151.182;2023-06-24T14:08:33;10.00;99.90
20803;DHT22;10562;-33.856;151.182;2023-06-24T14:11:04;10.00;99.90
20803;DHT22;10562;-33.856;151.182;2023-06-24T14:13:36;10.20;99.90
20803;DHT22;10562;-33.856;151.182;2023-06-24T14:16:09;10.20;99.90
20803;DHT22;10562;-33.856;151.182;2023-06-24T14:18:40;10.10;99.90
20803;DHT22;10562;-33.856;151.182;2023-06-24T14:21:11;10.10;99.90
20803;DHT22;10562;-33.856;151.182;2023-06-24T14:23:41;10.20;99.90
20803;DHT22;10562;-33.856;151.182;2023-06-24T14:26:12;10.20;99.90
20803;DHT22;10562;-33.856;151.182;2023-06-24T14:28:45;10.50;99.90
20803;DHT22;10562;-33.856;151.182;2023-06-24T14:31:16;10.60;99.90
20803;DHT22;10562;-33.856;151.182;2023-06-24T14:33:47;10.50;99.90
20803;DHT22;10562;-33.856;151.182;2023-06-24T14:36:18;10.50;99.90
20803;DHT22;10562;-33.856;151.182;2023-06-24T14:38:48;10.60;99.90
20803;DHT22;10562;-33.856;151.182;2023-06-24T14:41:19;10.70;99.90
20803;DHT22;10562;-33.856;151.182;2023-06-24T14:43:52;10.60;99.90
20803;DHT22;10562;-33.856;151.182;2023-06-24T14:46:23;10.60;99.90
20803;DHT22;10562;-33.856;151.182;2023-06-24T14:48:53;10.60;99.90
20803;DHT22;10562;-33.856;151.182;2023-06-24T14:51:25;10.70;99.90
20803;DHT22;10562;-33.856;151.182;2023-06-24T14:53:56;10.90;99.90
20803;DHT22;10562;-33.856;151.182;2023-06-24T14:56:26;11.10;99.90
20803;DHT22;10562;-33.856;151.182;2023-06-24T14:58:59;11.10;99.90
20803;DHT22;10562;-33.856;151.182;2023-06-24T15:01:30;11.20;99.90
20803;DHT22;10562;-33.856;151.182;2023-06-24T15:04:01;11.40;99.90
20803;DHT22;10562;-33.856;151.182;2023-06-24T15:06:32;11.40;99.90
20803;DHT22;10562;-33.856;151.182;2023-06-24T15:09:03;11.40;99.90
20803;DHT22;10562;-33.856;151.182;2023-06-24T15:11:34;11.30;99.90
20803;DHT22;10562;-33.856;151.182;2023-06-24T15:14:07;11.30;99.90
20803;DHT22;10562;-33.856;151.182;2023-06-24T15:16:38;11.20;99.90
20803;DHT22;10562;-33.856;151.182;2023-06-24T15:19:08;11.20;99.90
20803;DHT22;10562;-33.856;151.182;2023-06-24T15:21:39;11.30;99.90